Time;durP1;ratioP1;P1;durP2;ratioP2;P2;SDS_P1;SDS_P2;PMS_P1;PMS_P2;Temp;Humidity;BMP_temperature;BMP_pressure;BME280_temperature;BME280_humidity;BME280_pressure;Samples;Min_cycle;Max_cycle;Signal;HPM_P1;HPM_P2
2023/07/16 00:01:32;;;;;;;4.30;2.65;;;18.80;99.90;;;18.70;100.00;97097.34;5012528;28;20041;-38
2023/07/16 00:03:57;;;;;;;4.03;2.50;;;18.80;99.90;;;18.67;100.00;97094.91;5022615;28;20060;-37
2023/07/16 00:06:23;;;;;;;5.63;2.50;;;18.70;99.90;;;18.48;100.00;97071.38;5015465;28;20029;-38
2023/07/16 00:08:49;;;;;;;3.33;2.40;;;18.70;99.90;;;18.58;100.00;97093.75;5015616;28;20037;-37
2023/07/16 00:11:14;;;;;;;3.25;2.60;;;18.70;99.90;;;18.55;100.00;97093.13;5016349;28;20224;-38
2023/07/16 00:13:45;;;;;;;6.43;2.20;;;18.60;99.90;;;18.53;100.00;97101.25;5011285;28;20033;-38
2023/07/16 00:16:12;;;;;;;2.85;2.20;;;18.60;99.90;;;18.54;100.00;97091.41;5010469;28;20033;-38
2023/07/16 00:18:37;;;;;;;3.25;2.40;;;18.60;99.90;;;18.56;100.00;97097.53;5011281;28;20051;-38
2023/07/16 00:21:03;;;;;;;5.78;2.20;;;18.60;99.90;;;18.54;100.00;97094.09;5015129;28;20026;-38
2023/07/16 00:23:29;;;;;;;2.67;2.05;;;18.60;99.90;;;18.48;100.00;97088.25;5012721;28;20515;-38
2023/07/16 00:25:55;;;;;;;1.88;1.70;;;18.60;99.90;;;18.39;100.00;97078.22;5015379;28;20037;-37
2023/07/16 00:28:20;;;;;;;2.95;2.00;;;18.50;99.90;;;18.35;100.00;97082.09;5013574;28;20082;-36
2023/07/16 00:30:46;;;;;;;2.72;1.95;;;18.40;99.90;;;18.36;100.00;97089.16;5010337;28;20232;-35
2023/07/16 00:33:12;;;;;;;1.75;1.63;;;18.40;99.90;;;18.37;100.00;97095.34;5011173;28;20358;-39
2023/07/16 00:35:37;;;;;;;1.98;1.40;;;18.50;99.90;;;18.38;100.00;97102.41;5011957;28;20036;-39
2023/07/16 00:38:03;;;;;;;1.70;1.60;;;18.50;99.90;;;18.30;100.00;97098.47;5011887;28;20080;-39
2023/07/16 00:40:29;;;;;;;2.20;1.60;;;18.50;99.90;;;18.39;100.00;97115.59;5012355;28;20034;-38
2023/07/16 00:42:54;;;;;;;1.60;1.50;;;18.50;99.90;;;18.40;100.00;97111.97;5013717;28;20037;-38
2023/07/16 00:45:20;;;;;;;1.63;1.40;;;18.40;99.90;;;18.39;100.00;97117.44;5013983;28;20724;-38
2023/07/16 00:47:46;;;;;;;3.55;1.60;;;18.50;99.90;;;18.31;100.00;97107.31;5014161;28;20021;-37
2023/07/16 00:50:12;;;;;;;2.60;1.40;;;18.40;99.90;;;18.38;100.00;97105.91;5012670;28;20524;-38
2023/07/16 00:52:38;;;;;;;1.67;1.40;;;18.40;99.90;;;18.40;100.00;97103.97;5009171;28;20083;-38
2023/07/16 00:55:06;;;;;;;3.90;1.75;;;18.50;99.90;;;18.30;100.00;97090.47;5013982;28;20120;-38
2023/07/16 00:57:33;;;;;;;1.55;1.40;;;18.50;99.90;;;18.37;100.00;97096.19;5012029;28;20466;-38
2023/07/16 00:59:58;;;;;;;1.40;1.25;;;18.50;99.90;;;18.43;100.00;97106.44;5005491;28;20308;-39
2023/07/16 01:02:24;;;;;;;1.98;1.40;;;18.50;99.90;;;18.42;100.00;97104.72;5007396;28;20041;-37
2023/07/16 01:04:50;;;;;;;1.58;1.25;;;18.50;99.90;;;18.46;100.00;97113.34;5012374;28;20053;-39
2023/07/16 01:07:18;;;;;;;1.45;1.30;;;18.50;99.90;;;18.46;100.00;97132.03;5011366;28;20045;-38
2023/07/16 01:09:44;;;;;;;3.22;1.30;;;18.50;99.90;;;18.44;100.00;97139.31;5012685;28;20030;-38
2023/07/16 01:12:11;;;;;;;1.50;1.20;;;18.50;99.90;;;18.44;100.00;97144.66;5012713;28;20477;-39
2023/07/16 01:14:37;;;;;;;1.92;1.50;;;18.50;99.90;;;18.45;100.00;97147.22;5010233;28;20037;-37
2023/07/16 01:17:06;;;;;;;1.30;1.20;;;18.50;99.90;;;18.45;100.00;97163.22;5012015;28;20520;-38
2023/07/16 01:19:33;;;;;;;3.13;1.60;;;18.50;99.90;;;18.42;100.00;97157.25;5012393;28;20044;-40
2023/07/16 01:22:36;;;;;;;2.85;1.50;;;18.50;99.90;;;18.32;100.00;97146.38;5010624;28;20029;-38
2023/07/16 01:25:58;;;;;;;1.77;1.25;;;18.50;99.90;;;18.30;100.00;97151.84;5012499;28;20045;-38
2023/07/16 01:28:51;;;;;;;2.03;1.00;;;18.40;99.90;;;18.21;100.00;97149.81;5008391;28;20405;-39
2023/07/16 01:31:18;;;;;;;1.70;1.20;;;18.30;99.90;;;18.04;100.00;97152.88;5009912;28;20049;-39
2023/07/16 01:33:45;;;;;;;2.45;1.30;;;18.20;99.90;;;17.73;100.00;97163.84;5009461;28;20292;-38
2023/07/16 01:36:11;;;;;;;1.25;1.10;;;18.00;99.90;;;17.69;100.00;97164.16;5011924;28;20347;-39
2023/07/16 01:38:37;;;;;;;1.52;1.30;;;17.80;99.90;;;17.54;100.00;97166.91;5012548;28;20243;-37
2023/07/16 01:41:03;;;;;;;1.40;1.08;;;17.70;99.90;;;17.50;100.00;97180.59;5009980;28;20025;-38
2023/07/16 01:43:28;;;;;;;1.10;1.00;;;17.60;99.90;;;17.43;100.00;97177.47;5010558;28;20395;-37
2023/07/16 01:45:54;;;;;;;2.88;1.30;;;17.60;99.90;;;17.40;100.00;97168.84;5004829;28;20068;-38
2023/07/16 01:48:31;;;;;;;1.20;1.00;;;17.50;99.90;;;17.35;100.00;97166.47;5009200;28;20030;-38
2023/07/16 01:50:57;;;;;;;1.35;1.10;;;17.40;99.90;;;17.30;100.00;97156.13;5016136;28;20064;-37
2023/07/16 01:53:22;;;;;;;1.30;1.10;;;17.40;99.90;;;17.26;100.00;97146.63;5012070;28;20041;-38
2023/07/16 01:55:48;;;;;;;1.15;1.05;;;17.40;99.90;;;17.15;100.00;97125.19;5010910;28;20052;-38
2023/07/16 01:58:14;;;;;;;0.90;0.85;;;17.40;99.90;;;17.14;100.00;97147.47;5005021;28;20053;-38
2023/07/16 02:00:40;;;;;;;1.42;1.15;;;17.30;99.90;;;17.05;100.00;97159.59;5008269;28;20103;-37
2023/07/16 02:03:05;;;;;;;1.33;1.23;;;17.30;99.90;;;16.95;100.00;97159.34;5009159;28;20623;-37
2023/07/16 02:05:31;;;;;;;1.05;0.98;;;17.20;99.90;;;16.96;100.00;97168.22;5009895;28;20124;-38
2023/07/16 02:07:57;;;;;;;1.50;1.20;;;17.20;99.90;;;16.94;100.00;97175.44;5008627;28;20032;-38
2023/07/16 02:10:23;;;;;;;1.60;1.10;;;17.10;99.90;;;16.92;100.00;97180.88;5009711;28;20491;-38
2023/07/16 02:12:49;;;;;;;1.73;1.15;;;17.10;99.90;;;16.89;100.00;97174.91;5008384;28;20033;-38
2023/07/16 02:15:15;;;;;;;2.05;1.35;;;17.10;99.90;;;16.88;100.00;97158.06;5007911;28;20029;-39
2023/07/16 02:17:41;;;;;;;2.65;1.13;;;17.00;99.90;;;16.85;100.00;97162.72;5012562;28;20349;-39
2023/07/16 02:20:09;;;;;;;3.03;1.27;;;17.00;99.90;;;16.79;100.00;97179.94;5011045;28;20212;-40
2023/07/16 02:22:36;;;;;;;1.10;0.95;;;17.00;99.90;;;16.74;100.00;97169.59;5005643;28;20026;-38
2023/07/16 02:25:02;;;;;;;1.20;1.08;;;17.00;99.90;;;16.78;100.00;97180.91;5010439;28;20060;-38
2023/07/16 02:27:28;;;;;;;0.95;0.93;;;16.90;99.90;;;16.79;100.00;97179.94;5010879;28;20261;-37
2023/07/16 02:29:53;;;;;;;2.33;1.20;;;16.90;99.90;;;16.75;100.00;97187.28;5012940;28;20436;-36
2023/07/16 02:32:19;;;;;;;1.17;0.90;;;16.90;99.90;;;16.75;100.00;97194.41;5010567;28;20030;-37
2023/07/16 02:34:45;;;;;;;1.00;0.90;;;16.90;99.90;;;16.75;100.00;97197.06;5010850;28;20346;-37
2023/07/16 02:37:10;;;;;;;1.48;1.20;;;16.90;99.90;;;16.75;100.00;97189.94;5008169;28;20032;-37
2023/07/16 02:39:36;;;;;;;1.80;1.42;;;16.90;99.90;;;16.75;100.00;97191.75;5009600;28;20022;-38
2023/07/16 02:42:02;;;;;;;1.13;1.02;;;16.90;99.90;;;16.75;100.00;97173.97;5006738;28;20033;-37
2023/07/16 02:44:27;;;;;;;1.23;0.93;;;16.90;99.90;;;16.75;100.00;97173.09;5009274;28;20041;-37
2023/07/16 02:46:53;;;;;;;2.45;1.27;;;16.90;99.90;;;16.70;100.00;97177.88;5007994;28;20032;-38
2023/07/16 02:49:19;;;;;;;1.20;1.10;;;16.90;99.90;;;16.72;100.00;97191.94;4995524;28;20255;-39
2023/07/16 02:51:44;;;;;;;2.42;1.20;;;16.90;99.90;;;16.70;100.00;97197.38;5003107;28;20378;-38
2023/07/16 02:54:10;;;;;;;1.25;1.08;;;16.90;99.90;;;16.70;100.00;97189.38;5007002;28;20092;-38
2023/07/16 02:56:36;;;;;;;4.20;1.25;;;16.90;99.90;;;16.67;100.00;97180.72;5009824;28;20624;-38
2023/07/16 02:59:01;;;;;;;3.53;1.23;;;16.90;99.90;;;16.65;100.00;97188.81;5002388;28;20033;-38
2023/07/16 03:01:27;;;;;;;1.17;1.00;;;16.90;99.90;;;16.67;100.00;97186.06;5003627;28;20484;-39
2023/07/16 03:03:53;;;;;;;1.45;1.17;;;16.80;99.90;;;16.69;100.00;97197.47;5009771;28;21360;-38
2023/07/16 03:06:19;;;;;;;1.20;1.10;;;16.90;99.90;;;16.69;100.00;97201.00;5006991;28;20040;-38
2023/07/16 03:08:45;;;;;;;3.90;1.40;;;16.90;99.90;;;16.67;100.00;97212.69;5008701;28;20061;-37
2023/07/16 03:11:11;;;;;;;2.97;1.13;;;16.80;99.90;;;16.66;100.00;97203.84;5007182;28;20114;-38
2023/07/16 03:13:37;;;;;;;2.33;1.13;;;16.90;99.90;;;16.65;100.00;97199.47;5010554;28;20087;-38
2023/07/16 03:16:03;;;;;;;2.58;1.25;;;16.80;99.90;;;16.64;100.00;97207.59;5007756;28;20450;-38
2023/07/16 03:18:32;;;;;;;3.55;1.10;;;16.80;99.90;;;16.58;100.00;97214.13;5008674;28;20521;-37
2023/07/16 03:20:58;;;;;;;5.95;1.40;;;16.80;99.90;;;16.51;100.00;97216.34;5013909;28;20112;-39
2023/07/16 03:23:24;;;;;;;2.20;1.10;;;16.70;99.90;;;16.50;100.00;97233.25;5007346;28;20048;-37
2023/07/16 03:25:51;;;;;;;2.22;1.20;;;16.70;99.90;;;16.49;100.00;97238.69;5010642;28;20026;-38
2023/07/16 03:28:17;;;;;;;2.65;1.40;;;16.70;99.90;;;16.47;100.00;97238.78;5009517;28;20034;-38
2023/07/16 03:30:50;;;;;;;1.55;1.10;;;16.70;99.90;;;16.49;100.00;97239.56;5010642;28;20029;-37
2023/07/16 03:33:16;;;;;;;2.42;1.20;;;16.70;99.90;;;16.52;100.00;97242.00;5005633;28;20040;-38
2023/07/16 03:35:43;;;;;;;3.42;1.00;;;16.70;99.90;;;16.52;100.00;97239.34;5012542;28;20042;-38
2023/07/16 03:38:10;;;;;;;1.48;1.30;;;16.70;99.90;;;16.51;100.00;97258.06;5004710;28;20428;-37
2023/07/16 03:40:36;;;;;;;2.85;1.25;;;16.70;99.90;;;16.51;100.00;97280.22;5008388;28;20025;-39
2023/07/16 03:43:02;;;;;;;3.75;1.17;;;16.70;99.90;;;16.53;100.00;97273.00;5011770;28;20033;-37
2023/07/16 03:45:28;;;;;;;1.27;1.13;;;16.70;99.90;;;16.52;100.00;97260.63;5010280;28;21449;-37
2023/07/16 03:47:53;;;;;;;2.65;1.13;;;16.70;99.90;;;16.52;100.00;97268.63;5009187;28;20327;-38
2023/07/16 03:50:19;;;;;;;2.03;1.10;;;16.70;99.90;;;16.53;100.00;97296.97;5009507;28;20037;-38
2023/07/16 03:52:45;;;;;;;1.83;1.20;;;16.70;99.90;;;16.45;100.00;97280.59;5011890;28;20025;-37
2023/07/16 03:55:11;;;;;;;1.38;1.10;;;16.70;99.90;;;16.50;100.00;97297.13;5004818;28;20441;-37
2023/07/16 03:57:37;;;;;;;1.77;1.33;;;16.70;99.90;;;16.46;100.00;97314.25;5008008;28;20045;-38
2023/07/16 04:00:06;;;;;;;1.40;1.20;;;16.70;99.90;;;16.47;100.00;97310.63;5008779;28;20494;-38
2023/07/16 04:02:31;;;;;;;2.30;1.55;;;16.70;99.90;;;16.48;100.00;97317.69;5006287;28;20072;-38
2023/07/16 04:04:57;;;;;;;3.90;1.55;;;16.70;99.90;;;16.45;100.00;97325.84;5010499;28;20041;-38
2023/07/16 04:07:23;;;;;;;4.70;1.17;;;16.60;99.90;;;16.46;100.00;97319.59;5007422;28;20660;-38
2023/07/16 04:09:49;;;;;;;1.98;1.40;;;16.60;99.90;;;16.38;100.00;97309.44;5004974;28;20029;-38
2023/07/16 04:12:14;;;;;;;2.20;1.20;;;16.70;99.90;;;16.49;100.00;97322.06;5007348;28;20040;-37
2023/07/16 04:14:40;;;;;;;2.35;1.20;;;16.60;99.90;;;16.48;100.00;97308.84;5016728;28;20436;-38
2023/07/16 04:17:06;;;;;;;2.53;1.27;;;16.70;99.90;;;16.46;100.00;97287.66;5003762;28;20037;-38
2023/07/16 04:19:31;;;;;;;1.95;1.33;;;16.60;99.90;;;16.35;100.00;97280.34;5009181;28;20057;-37
2023/07/16 04:21:57;;;;;;;1.40;1.20;;;16.60;99.90;;;16.44;100.00;97296.66;5011743;28;20029;-38
2023/07/16 04:24:23;;;;;;;2.70;1.40;;;16.60;99.90;;;16.43;100.00;97287.84;5007572;28;20674;-38
2023/07/16 04:26:49;;;;;;;2.20;1.20;;;16.60;99.90;;;16.42;100.00;97289.66;5006625;28;20025;-38
2023/07/16 04:29:15;;;;;;;2.35;1.45;;;16.60;99.90;;;16.43;100.00;97290.50;5004170;28;20371;-38
2023/07/16 04:31:41;;;;;;;1.77;1.27;;;16.60;99.90;;;16.42;100.00;97326.06;5007596;28;20037;-37
2023/07/16 04:34:06;;;;;;;2.15;1.30;;;16.60;99.90;;;16.42;100.00;97313.59;5006869;28;20378;-38
2023/07/16 04:36:32;;;;;;;2.00;1.67;;;16.60;99.90;;;16.42;100.00;97326.06;5011812;28;20037;-37
2023/07/16 04:38:58;;;;;;;1.60;1.30;;;16.60;99.90;;;16.42;100.00;97347.34;5008740;28;20560;-37
2023/07/16 04:41:24;;;;;;;1.77;1.17;;;16.60;99.90;;;16.44;100.00;97337.47;5010037;28;20071;-38
2023/07/16 04:43:49;;;;;;;2.28;1.20;;;16.60;99.90;;;16.49;100.00;97348.69;5008698;28;20469;-37
2023/07/16 04:46:16;;;;;;;2.45;1.50;;;16.60;99.90;;;16.46;100.00;97348.03;5006253;28;20030;-38
2023/07/16 04:48:42;;;;;;;2.03;1.27;;;16.70;99.90;;;16.54;100.00;97364.34;5010824;28;20029;-39
2023/07/16 04:51:07;;;;;;;3.22;1.25;;;16.70;99.90;;;16.56;100.00;97365.13;5008505;28;20060;-38
2023/07/16 04:53:33;;;;;;;3.28;1.30;;;16.70;99.90;;;16.59;100.00;97360.47;5008696;28;20073;-37
2023/07/16 04:55:59;;;;;;;2.40;1.27;;;16.80;99.90;;;16.64;100.00;97356.69;5009526;28;20029;-38
2023/07/16 04:58:25;;;;;;;5.45;1.40;;;16.80;99.90;;;16.64;100.00;97357.53;5011015;28;20362;-38
2023/07/16 05:00:51;;;;;;;2.70;1.40;;;16.80;99.90;;;16.69;100.00;97354.56;5006495;28;20101;-39
2023/07/16 05:03:16;;;;;;;2.30;1.20;;;16.90;99.90;;;16.68;100.00;97353.72;5002630;28;20070;-38
2023/07/16 05:05:42;;;;;;;3.83;1.27;;;16.90;99.90;;;16.68;100.00;97353.72;5010306;28;20040;-38
2023/07/16 05:08:08;;;;;;;6.57;1.23;;;16.90;99.90;;;16.70;100.00;97357.13;5007974;28;20449;-38
2023/07/16 05:10:34;;;;;;;2.65;1.50;;;16.90;99.90;;;16.71;100.00;97366.84;5010462;28;20025;-37
2023/07/16 05:13:00;;;;;;;2.67;1.20;;;16.90;99.90;;;16.75;100.00;97368.34;5011194;28;20090;-38
2023/07/16 05:15:26;;;;;;;3.05;1.38;;;16.90;99.90;;;16.71;100.00;97355.34;5009426;28;20033;-37
2023/07/16 05:17:52;;;;;;;1.13;1.02;;;17.00;99.90;;;16.86;100.00;97370.38;5009948;28;20439;-38
2023/07/16 05:20:18;;;;;;;2.45;1.75;;;17.10;99.90;;;16.84;100.00;97348.31;5007739;28;20193;-38
2023/07/16 05:22:43;;;;;;;5.03;1.92;;;17.10;99.90;;;16.88;100.00;97360.47;5014191;28;20128;-40
2023/07/16 05:25:09;;;;;;;3.70;1.38;;;17.10;99.90;;;16.92;100.00;97356.69;5004051;28;20381;-39
2023/07/16 05:27:35;;;;;;;2.70;1.42;;;17.10;99.90;;;16.97;100.00;97373.22;5007380;28;20048;-39
2023/07/16 05:30:01;;;;;;;3.30;1.17;;;17.20;99.90;;;17.02;100.00;97364.94;5010717;28;20480;-39
2023/07/16 05:32:27;;;;;;;2.63;1.40;;;17.20;99.90;;;17.08;100.00;97366.34;5004494;28;20030;-37
2023/07/16 05:34:52;;;;;;;2.40;1.60;;;17.30;99.90;;;17.16;100.00;97362.25;5011598;28;20029;-37
2023/07/16 05:37:18;;;;;;;1.52;1.30;;;17.40;99.90;;;17.19;100.00;97363.84;5010617;28;20071;-37
2023/07/16 05:39:44;;;;;;;1.40;1.25;;;17.40;99.90;;;17.32;100.00;97375.44;5009231;28;20022;-38
2023/07/16 05:42:09;;;;;;;4.53;1.33;;;17.50;99.90;;;17.42;100.00;97391.69;5008585;28;20548;-38
2023/07/16 05:44:35;;;;;;;3.05;1.55;;;17.60;99.90;;;17.56;100.00;97380.13;5013146;28;20041;-38
2023/07/16 05:47:01;;;;;;;2.85;1.50;;;17.70;99.90;;;17.76;100.00;97376.13;5010491;28;20112;-37
2023/07/16 05:49:27;;;;;;;2.15;1.45;;;17.90;99.90;;;17.89;100.00;97400.22;5009043;28;20397;-38
2023/07/16 05:51:54;;;;;;;2.85;1.33;;;18.00;99.90;;;17.98;100.00;97399.63;5013115;28;20032;-37
2023/07/16 05:54:19;;;;;;;3.85;1.77;;;18.10;99.90;;;18.08;100.00;97405.19;5010662;28;20084;-37
2023/07/16 05:56:45;;;;;;;1.58;1.35;;;18.20;99.90;;;18.18;100.00;97403.63;5010219;28;20557;-37
2023/07/16 05:59:11;;;;;;;4.00;1.42;;;18.30;99.90;;;18.21;100.00;97400.72;5007563;28;20034;-37
2023/07/16 06:01:36;;;;;;;2.15;1.40;;;18.40;99.90;;;18.10;100.00;97368.56;5000527;28;20502;-37
2023/07/16 06:04:02;;;;;;;3.55;1.20;;;18.40;99.90;;;18.21;100.00;97389.19;5005179;28;20762;-37
2023/07/16 06:06:29;;;;;;;1.75;1.20;;;18.40;99.90;;;18.24;100.00;97372.97;5010843;28;20049;-37
2023/07/16 06:08:55;;;;;;;1.67;1.10;;;18.50;99.90;;;18.31;100.00;97374.28;5004922;28;20033;-37
2023/07/16 06:11:20;;;;;;;2.83;1.48;;;18.50;99.90;;;18.32;100.00;97378.63;5006822;28;20041;-37
2023/07/16 06:13:46;;;;;;;2.10;1.15;;;18.50;99.90;;;18.24;100.00;97379.16;5004416;28;20034;-37
2023/07/16 06:16:12;;;;;;;3.60;1.35;;;18.40;99.90;;;18.17;100.00;97393.88;5006197;28;20518;-37
2023/07/16 06:18:37;;;;;;;4.38;1.00;;;18.40;99.90;;;18.17;100.00;97409.06;5002413;28;20037;-37
2023/07/16 06:21:03;;;;;;;3.08;1.30;;;18.40;99.90;;;18.18;100.00;97408.06;5009038;28;20040;-37
2023/07/16 06:23:29;;;;;;;2.35;1.10;;;18.30;99.90;;;18.18;100.00;97408.97;5013826;28;20037;-37
2023/07/16 06:25:56;;;;;;;2.88;1.55;;;18.40;99.90;;;18.15;100.00;97393.13;5009840;28;20036;-37
2023/07/16 06:28:22;;;;;;;2.00;1.27;;;18.30;99.90;;;18.15;100.00;97384.28;5012672;28;20085;-37
2023/07/16 06:30:49;;;;;;;1.85;1.27;;;18.30;99.90;;;18.15;100.00;97394.97;5012768;28;20485;-37
2023/07/16 06:33:15;;;;;;;2.17;1.40;;;18.40;99.90;;;18.23;100.00;97395.28;5006412;28;20490;-37
2023/07/16 06:35:45;;;;;;;2.15;1.50;;;18.40;99.90;;;18.36;100.00;97398.84;5013721;28;20052;-37
2023/07/16 06:38:11;;;;;;;1.48;1.17;;;18.50;99.90;;;18.50;100.00;97397.88;5006968;28;20041;-37
2023/07/16 06:40:37;;;;;;;7.40;1.70;;;18.60;99.90;;;18.64;100.00;97400.44;5010976;28;20340;-37
2023/07/16 06:43:03;;;;;;;4.13;1.67;;;18.80;99.90;;;18.65;100.00;97403.97;5013061;28;20038;-38
2023/07/16 06:45:28;;;;;;;6.68;1.70;;;18.90;99.90;;;18.78;100.00;97394.13;5009167;28;20036;-37
2023/07/16 06:47:54;;;;;;;2.85;1.40;;;19.00;99.90;;;18.95;100.00;97394.78;5011906;28;20034;-37
2023/07/16 06:50:20;;;;;;;6.10;1.60;;;19.10;99.90;;;19.15;100.00;97398.69;5011475;28;20037;-37
2023/07/16 06:52:45;;;;;;;2.25;1.75;;;19.30;99.90;;;19.40;100.00;97400.50;5013611;28;20501;-37
2023/07/16 06:55:11;;;;;;;2.28;1.40;;;19.50;99.90;;;19.62;100.00;97395.25;5008869;28;20088;-38
2023/07/16 06:57:37;;;;;;;5.63;1.40;;;19.70;99.90;;;19.78;100.00;97399.53;5013168;28;20481;-37
2023/07/16 07:00:04;;;;;;;3.80;1.25;;;19.90;99.90;;;19.87;100.00;97396.16;5012258;28;20042;-38
2023/07/16 07:02:29;;;;;;;4.10;1.58;;;20.00;99.90;;;19.98;100.00;97408.72;5014725;28;20048;-37
2023/07/16 07:04:55;;;;;;;2.50;1.27;;;20.10;99.90;;;20.09;100.00;97406.09;5010724;28;20033;-37
2023/07/16 07:07:21;;;;;;;5.07;1.48;;;20.10;99.90;;;20.14;100.00;97419.97;5012952;28;20041;-39
2023/07/16 07:09:49;;;;;;;3.05;1.23;;;20.20;99.90;;;20.10;100.00;97414.97;5018614;28;20025;-37
2023/07/16 07:12:15;;;;;;;3.72;1.65;;;20.10;99.90;;;20.04;100.00;97410.94;5012377;28;20124;-37
2023/07/16 07:14:41;;;;;;;6.80;1.50;;;20.10;99.90;;;20.02;100.00;97404.84;5013115;28;20512;-37
2023/07/16 07:17:06;;;;;;;3.75;1.33;;;20.10;99.90;;;20.04;100.00;97397.53;5009642;28;20029;-38
2023/07/16 07:19:32;;;;;;;2.83;1.27;;;20.10;99.90;;;20.14;100.00;97406.59;5011403;28;20044;-37
2023/07/16 07:21:58;;;;;;;2.00;1.25;;;20.10;99.90;;;20.25;100.00;97410.28;5013046;28;20056;-37
2023/07/16 07:24:24;;;;;;;4.00;1.40;;;20.20;99.90;;;20.37;100.00;97398.66;5012428;28;20053;-37
2023/07/16 07:26:49;;;;;;;3.33;1.30;;;20.30;99.90;;;20.45;100.00;97395.38;5010067;28;20487;-37
2023/07/16 07:29:15;;;;;;;6.65;1.40;;;20.30;99.90;;;20.46;100.00;97407.78;5000579;28;20029;-37
2023/07/16 07:31:41;;;;;;;3.08;1.50;;;20.40;99.90;;;20.58;100.00;97414.88;5010575;28;20524;-37
2023/07/16 07:34:07;;;;;;;4.03;1.50;;;20.50;99.90;;;20.82;100.00;97412.16;5011828;28;20235;-37
2023/07/16 07:36:32;;;;;;;2.63;1.40;;;20.80;99.90;;;21.14;100.00;97414.97;5015574;28;20388;-37
2023/07/16 07:38:58;;;;;;;2.25;1.38;;;21.20;99.90;;;21.59;100.00;97423.94;5013068;28;20036;-40
2023/07/16 07:41:24;;;;;;;2.92;1.48;;;21.60;99.90;;;21.80;100.00;97434.78;5011911;28;20099;-37
2023/07/16 07:43:50;;;;;;;3.35;1.50;;;21.90;99.90;;;21.98;100.00;97427.88;5011859;28;20535;-37
2023/07/16 07:46:15;;;;;;;6.32;1.48;;;22.00;99.90;;;21.83;100.00;97421.09;5012127;28;20025;-38
2023/07/16 07:48:41;;;;;;;3.08;1.38;;;22.00;99.90;;;21.72;98.41;97420.16;5014004;28;20040;-37
2023/07/16 07:51:07;;;;;;;6.00;1.58;;;21.90;99.90;;;21.57;100.00;97425.91;5014385;28;20033;-37
2023/07/16 07:53:33;;;;;;;7.18;1.50;;;21.90;99.90;;;21.50;100.00;97428.25;5012352;28;20033;-37
2023/07/16 07:55:58;;;;;;;4.95;1.40;;;21.80;99.90;;;21.54;100.00;97435.06;5015460;28;20536;-37
2023/07/16 07:58:24;;;;;;;3.63;1.33;;;21.80;99.90;;;21.66;100.00;97428.72;5010288;28;20063;-37
2023/07/16 08:00:50;;;;;;;4.25;1.70;;;21.90;99.90;;;21.45;100.00;97439.34;5010949;28;20460;-37
2023/07/16 08:03:15;;;;;;;3.70;1.40;;;21.90;99.90;;;21.46;100.00;97437.50;5008316;28;21069;-37
2023/07/16 08:05:41;;;;;;;3.83;1.38;;;21.80;99.90;;;21.33;100.00;97441.16;5014624;28;20385;-37
2023/07/16 08:08:07;;;;;;;5.78;1.50;;;21.60;99.90;;;21.02;100.00;97439.22;5010391;28;20076;-38
2023/07/16 08:10:34;;;;;;;3.95;1.35;;;21.20;99.90;;;20.84;100.00;97442.38;5014531;28;20495;-37
2023/07/16 08:12:59;;;;;;;4.22;1.80;;;21.00;99.90;;;20.46;100.00;97442.59;5009812;28;20067;-37
2023/07/16 08:15:25;;;;;;;3.10;1.40;;;20.70;99.90;;;20.35;100.00;97436.25;5001389;28;20041;-37
2023/07/16 08:17:51;;;;;;;4.90;1.40;;;20.50;99.90;;;20.18;100.00;97440.19;5015408;28;20560;-37
2023/07/16 08:20:16;;;;;;;5.60;1.48;;;20.40;99.90;;;20.24;99.65;97428.16;5003962;28;20041;-37
2023/07/16 08:22:42;;;;;;;2.03;1.30;;;20.50;99.90;;;20.56;100.00;97438.25;5015315;28;20033;-39
2023/07/16 08:25:08;;;;;;;7.57;1.65;;;20.70;99.90;;;20.74;100.00;97441.38;5012148;28;20596;-37
2023/07/16 08:27:34;;;;;;;3.60;1.23;;;21.00;99.90;;;20.93;100.00;97435.44;5005617;28;20049;-38
2023/07/16 08:30:00;;;;;;;5.15;1.73;;;21.10;99.90;;;21.13;100.00;97425.81;5009888;28;20116;-37
2023/07/16 08:32:26;;;;;;;6.88;1.50;;;21.30;99.90;;;21.17;97.36;97417.41;5012627;28;20393;-37
2023/07/16 08:34:51;;;;;;;4.93;1.77;;;21.40;99.90;;;21.33;94.40;97414.31;5013195;28;20025;-37
2023/07/16 08:37:17;;;;;;;3.45;1.38;;;21.60;99.90;;;21.62;94.38;97411.13;4999846;28;20557;-38
2023/07/16 08:39:43;;;;;;;3.20;1.65;;;21.80;99.90;;;21.92;83.54;97418.50;5005915;28;20124;-37
2023/07/16 08:42:12;;;;;;;5.15;1.48;;;22.10;99.90;;;21.95;78.83;97433.53;5001272;28;20798;-38
2023/07/16 08:44:39;;;;;;;5.65;1.40;;;22.30;99.90;;;22.23;73.62;97421.31;4997109;28;20499;-37
2023/07/16 08:47:06;;;;;;;3.47;1.63;;;22.40;99.90;;;22.51;73.85;97421.69;5004812;28;20692;-37
2023/07/16 08:49:34;;;;;;;3.60;1.40;;;22.70;99.90;;;22.76;68.67;97423.13;5000399;28;20055;-37
2023/07/16 08:52:02;;;;;;;4.15;1.60;;;23.00;99.90;;;23.12;66.99;97438.94;5008231;28;20037;-37
2023/07/16 08:54:28;;;;;;;6.13;1.55;;;23.40;99.90;;;23.15;62.54;97433.25;5006433;28;20071;-37
2023/07/16 08:56:55;;;;;;;3.15;1.55;;;23.50;99.90;;;23.17;61.96;97440.22;5011658;28;20116;-37
2023/07/16 08:59:22;;;;;;;2.58;1.42;;;23.40;99.90;;;23.11;69.87;97438.06;5000543;28;20080;-37
2023/07/16 09:01:48;;;;;;;3.15;1.52;;;23.40;99.90;;;23.16;64.36;97440.34;5008833;28;20515;-37
2023/07/16 09:04:15;;;;;;;4.63;1.20;;;23.50;99.90;;;23.43;62.06;97437.91;5003224;28;20112;-38
2023/07/16 09:06:41;;;;;;;2.72;1.30;;;23.70;99.90;;;23.63;66.09;97440.66;5009392;28;20033;-37
2023/07/16 09:09:07;;;;;;;4.35;1.30;;;23.80;99.90;;;23.60;70.86;97452.56;5012067;28;20022;-37
2023/07/16 09:11:33;;;;;;;3.28;1.38;;;23.80;99.90;;;23.39;60.02;97444.56;5006978;28;20706;-38
2023/07/16 09:14:03;;;;;;;2.78;1.63;;;23.70;99.90;;;23.24;62.11;97436.00;4997320;28;20449;-38
2023/07/16 09:16:33;;;;;;;4.65;1.50;;;23.50;99.90;;;23.18;58.32;97422.22;4998433;28;20296;-36
2023/07/16 09:19:09;;;;;;;3.90;1.48;;;23.50;99.90;;;23.26;60.32;97438.56;5006698;28;20033;-37
2023/07/16 09:21:36;;;;;;;2.70;1.48;;;23.50;99.90;;;23.02;56.42;97438.84;5008421;28;20072;-37
2023/07/16 09:24:09;;;;;;;3.97;1.48;;;23.40;99.50;;;23.10;57.15;97439.06;5011006;28;20131;-38
2023/07/16 09:26:38;;;;;;;3.38;1.48;;;23.30;99.90;;;23.13;56.27;97427.16;5002978;28;20025;-36
2023/07/16 09:29:07;;;;;;;4.45;1.73;;;23.40;99.90;;;22.96;55.19;97434.84;4998593;28;20029;-37
2023/07/16 09:31:33;;;;;;;4.28;1.30;;;23.40;98.90;;;22.99;63.30;97436.44;5003852;28;20043;-37
2023/07/16 09:33:59;;;;;;;3.45;1.60;;;23.30;99.90;;;23.13;60.93;97435.22;5008559;28;20029;-37
2023/07/16 09:36:25;;;;;;;3.35;1.70;;;23.40;99.90;;;23.18;60.71;97438.38;5009316;28;20403;-37
2023/07/16 09:38:54;;;;;;;2.80;1.40;;;23.40;99.90;;;23.19;57.30;97429.34;5012603;28;20033;-38
2023/07/16 09:41:21;;;;;;;3.53;1.17;;;23.40;99.90;;;23.33;55.48;97428.09;5007825;28;20056;-36
2023/07/16 09:43:47;;;;;;;2.97;1.50;;;23.40;99.20;;;23.56;56.74;97426.03;5007895;28;20760;-37
2023/07/16 09:46:13;;;;;;;4.90;1.20;;;23.60;99.70;;;23.73;61.13;97419.16;5009084;28;20132;-37
2023/07/16 09:48:39;;;;;;;4.07;1.50;;;23.80;99.90;;;23.63;53.99;97429.88;5008510;28;20141;-37
2023/07/16 09:51:07;;;;;;;2.55;1.35;;;23.90;98.00;;;23.84;54.36;97431.69;5006389;28;20064;-37
2023/07/16 09:53:35;;;;;;;3.55;1.50;;;24.00;98.20;;;23.97;52.95;97435.78;5005122;28;20129;-37
2023/07/16 09:56:02;;;;;;;2.92;1.55;;;24.10;98.20;;;23.87;53.04;97428.69;5027876;28;20496;-37
2023/07/16 09:58:28;;;;;;;2.30;1.35;;;24.00;97.60;;;23.91;53.94;97427.44;5019122;28;20033;-36
2023/07/16 10:00:54;;;;;;;3.92;1.45;;;23.90;98.00;;;23.84;52.15;97435.22;5004450;28;20670;-38
2023/07/16 10:03:20;;;;;;;4.18;1.45;;;23.90;97.20;;;23.72;55.68;97429.06;5002979;28;20958;-37
2023/07/16 10:05:46;;;;;;;2.88;1.40;;;23.80;98.10;;;23.61;56.91;97429.19;5002099;28;20038;-36
2023/07/16 10:08:20;;;;;;;4.28;1.40;;;23.70;98.80;;;23.25;54.23;97428.78;5008910;28;20125;-37
2023/07/16 10:10:48;;;;;;;4.78;1.52;;;23.50;97.50;;;23.19;56.56;97438.25;4996114;28;20043;-36